createdAt,value
2019-01-24T00:00:54.978Z,97609.91
2019-01-24T00:01:57.549Z,97612.64
2019-01-24T00:02:59.972Z,97617.81
2019-01-24T00:04:02.697Z,97616.27
2019-01-24T00:05:05.320Z,97616.27
2019-01-24T00:06:09.061Z,97613.13
2019-01-24T00:07:11.448Z,97611.69
2019-01-24T00:08:14.146Z,97614.33
2019-01-24T00:09:16.766Z,97616.66
2019-01-24T00:10:19.341Z,97618.17
2019-01-24T00:11:21.726Z,97614.82
2019-01-24T00:12:24.278Z,97614.51
2019-01-24T00:13:28.652Z,97622.14
2019-01-24T00:14:31.120Z,97619.62
2019-01-24T00:15:33.654Z,97619.62
2019-01-24T00:16:36.432Z,97614.59
2019-01-24T00:17:40.204Z,97623.52
2019-01-24T00:18:42.907Z,97626.16
2019-01-24T00:19:45.856Z,97624.53
2019-01-24T00:20:48.278Z,97624.53
2019-01-24T00:21:51.298Z,97629.03
2019-01-24T00:22:53.715Z,97627.00
2019-01-24T00:23:56.123Z,97628.95
2019-01-24T00:24:58.880Z,97628.95
2019-01-24T00:26:01.271Z,97632.12
2019-01-24T00:27:03.870Z,97632.12
2019-01-24T00:28:06.249Z,97633.58
2019-01-24T00:29:08.662Z,97634.59
2019-01-24T00:30:11.148Z,97643.77
2019-01-24T00:31:13.514Z,97643.77
2019-01-24T00:32:15.908Z,97652.99
2019-01-24T00:33:18.344Z,97658.29
2019-01-24T00:34:23.325Z,97661.92
2019-01-24T00:35:25.182Z,97662.27
2019-01-24T00:36:27.628Z,97664.56
2019-01-24T00:37:30.089Z,97664.56
2019-01-24T00:38:33.727Z,97667.56
2019-01-24T00:39:36.361Z,97662.58
2019-01-24T00:40:39.084Z,97665.89
2019-01-24T00:41:41.671Z,97669.55
2019-01-24T00:42:44.000Z,97665.72
2019-01-24T00:43:47.441Z,97665.72
2019-01-24T00:44:49.833Z,97663.94
2019-01-24T00:45:52.347Z,97667.30
2019-01-24T00:46:54.703Z,97668.30
2019-01-24T00:47:57.233Z,97668.93
2019-01-24T00:48:59.573Z,97668.93
2019-01-24T00:50:01.986Z,97673.84
2019-01-24T00:51:04.991Z,97666.59
2019-01-24T00:52:07.573Z,97661.92
2019-01-24T00:53:10.053Z,97667.22
2019-01-24T00:54:12.743Z,97667.22
2019-01-24T00:55:15.395Z,97668.67
2019-01-24T00:56:17.809Z,97670.52
2019-01-24T00:57:20.544Z,97670.39
2019-01-24T00:58:23.072Z,97665.09
2019-01-24T00:59:25.596Z,97665.09
2019-01-24T01:00:28.129Z,97671.53
2019-01-24T01:01:30.572Z,97674.67
2019-01-24T01:02:33.375Z,97678.08
2019-01-24T01:03:35.810Z,97677.45
2019-01-24T01:04:38.157Z,97682.44
2019-01-24T01:05:40.612Z,97678.29
2019-01-24T01:06:43.188Z,97681.11
2019-01-24T01:07:45.534Z,97683.11
2019-01-24T01:08:47.960Z,97683.63
2019-01-24T01:09:50.466Z,97683.77
2019-01-24T01:10:53.246Z,97689.73
2019-01-24T01:11:55.702Z,97687.08
2019-01-24T01:12:58.202Z,97693.70
2019-01-24T01:14:01.852Z,97693.03
2019-01-24T01:15:06.168Z,97693.03
2019-01-24T01:16:08.940Z,97691.32
2019-01-24T01:17:11.350Z,97691.32
2019-01-24T01:18:13.716Z,97690.70
2019-01-24T01:19:16.123Z,97689.73
2019-01-24T01:20:20.317Z,97694.22
2019-01-24T01:21:22.863Z,97694.22
2019-01-24T01:22:25.319Z,97693.52
2019-01-24T01:23:28.022Z,97693.52
2019-01-24T01:24:31.892Z,97697.88
2019-01-24T01:25:34.293Z,97700.33
2019-01-24T01:26:36.952Z,97698.33
2019-01-24T01:27:39.475Z,97696.88
2019-01-24T01:28:41.976Z,97696.88
2019-01-24T01:29:44.522Z,97700.53
2019-01-24T01:30:47.077Z,97702.66
2019-01-24T01:31:49.542Z,97701.98
2019-01-24T01:32:53.300Z,97701.98
2019-01-24T01:33:55.755Z,97701.64
2019-01-24T01:34:58.231Z,97701.64
2019-01-24T01:36:01.077Z,97704.16
2019-01-24T01:37:03.841Z,97698.06
2019-01-24T01:38:06.330Z,97698.06
2019-01-24T01:39:09.231Z,97700.67
2019-01-24T01:40:12.183Z,97701.98
2019-01-24T01:41:14.770Z,97701.98
2019-01-24T01:42:17.167Z,97703.49
2019-01-24T01:43:21.971Z,97704.30
2019-01-24T01:44:25.658Z,97706.77
2019-01-24T01:45:28.565Z,97703.18
2019-01-24T01:46:32.119Z,97699.00
2019-01-24T01:47:34.632Z,97699.00
2019-01-24T01:48:37.351Z,97709.73
2019-01-24T01:49:40.545Z,97702.05
2019-01-24T01:50:44.293Z,97702.05
2019-01-24T01:51:48.231Z,97696.93
2019-01-24T01:52:50.620Z,97696.93
2019-01-24T01:53:53.035Z,97699.53
2019-01-24T01:54:55.690Z,97695.25
2019-01-24T01:55:58.209Z,97696.12
2019-01-24T01:57:00.782Z,97698.78
2019-01-24T01:58:03.094Z,97698.78
2019-01-24T01:59:05.907Z,97697.27
2019-01-24T02:00:19.618Z,97696.12
2019-01-24T02:01:22.310Z,97698.02
2019-01-24T02:02:25.224Z,97704.30
2019-01-24T02:03:27.922Z,97704.30
2019-01-24T02:04:30.647Z,97698.95
2019-01-24T02:05:33.131Z,97696.27
2019-01-24T02:06:35.734Z,97696.27
2019-01-24T02:07:38.280Z,97696.04
2019-01-24T02:08:40.987Z,97691.27
2019-01-24T02:09:43.626Z,97695.30
2019-01-24T02:10:46.314Z,97695.30
2019-01-24T02:11:48.796Z,97694.67
2019-01-24T02:12:51.505Z,97694.67
2019-01-24T02:13:54.102Z,97700.80
2019-01-24T02:14:56.714Z,97700.59
2019-01-24T02:15:59.326Z,97699.97
2019-01-24T02:17:04.077Z,97711.39
2019-01-24T02:18:06.474Z,97710.70
2019-01-24T02:19:08.992Z,97710.56
2019-01-24T02:20:19.215Z,97718.23
2019-01-24T02:21:21.816Z,97717.88
2019-01-24T02:22:24.645Z,97717.88
2019-01-24T02:23:27.424Z,97718.51
2019-01-24T02:24:29.771Z,97725.13
2019-01-24T02:25:32.358Z,97727.28
2019-01-24T02:26:35.867Z,97721.16
2019-01-24T02:27:38.314Z,97716.08
2019-01-24T02:28:43.156Z,97723.18
2019-01-24T02:29:45.845Z,97723.18
2019-01-24T02:30:48.177Z,97725.62
2019-01-24T02:31:50.687Z,97722.84
2019-01-24T02:32:53.284Z,97724.37
2019-01-24T02:33:55.978Z,97717.54
2019-01-24T02:34:58.498Z,97714.89
2019-01-24T02:36:01.015Z,97715.23
2019-01-24T02:37:03.460Z,97707.95
2019-01-24T02:38:06.336Z,97708.61
2019-01-24T02:39:08.835Z,97708.61
2019-01-24T02:40:11.552Z,97710.73
2019-01-24T02:41:14.071Z,97708.75
2019-01-24T02:42:16.978Z,97706.59
2019-01-24T02:43:19.623Z,97706.59
2019-01-24T02:44:23.627Z,97707.28
2019-01-24T02:45:27.407Z,97702.93
2019-01-24T02:46:31.860Z,97702.61
2019-01-24T02:47:34.387Z,97702.61
2019-01-24T02:48:36.785Z,97705.58
2019-01-24T02:49:39.318Z,97709.94
2019-01-24T02:50:42.088Z,97707.60
2019-01-24T02:51:44.600Z,97710.56
2019-01-24T02:52:47.146Z,97707.22
2019-01-24T02:53:49.730Z,97707.22
2019-01-24T02:54:53.184Z,97703.45
2019-01-24T02:55:55.939Z,97705.58
2019-01-24T02:56:58.595Z,97699.97
2019-01-24T02:58:01.029Z,97705.75
2019-01-24T02:59:03.406Z,97705.75
2019-01-24T03:00:07.254Z,97700.67
2019-01-24T03:01:10.210Z,97698.64
2019-01-24T03:02:12.929Z,97698.78
2019-01-24T03:03:15.396Z,97698.78
2019-01-24T03:04:18.208Z,97694.98
2019-01-24T03:05:21.211Z,97692.02
2019-01-24T03:06:23.662Z,97692.02
2019-01-24T03:07:26.014Z,97687.91
2019-01-24T03:08:28.586Z,97687.91
2019-01-24T03:09:31.238Z,97699.66
2019-01-24T03:10:34.288Z,97691.70
2019-01-24T03:11:39.374Z,97691.70
2019-01-24T03:12:41.767Z,97696.34
2019-01-24T03:13:44.542Z,97698.23
2019-01-24T03:14:48.842Z,97696.04
2019-01-24T03:15:51.347Z,97694.71
2019-01-24T03:16:53.869Z,97703.31
2019-01-24T03:17:56.200Z,97702.66
2019-01-24T03:18:58.753Z,97703.49
2019-01-24T03:20:01.129Z,97703.49
2019-01-24T03:21:03.840Z,97701.98
2019-01-24T03:22:06.346Z,97707.82
2019-01-24T03:23:11.048Z,97714.58
2019-01-24T03:24:15.313Z,97714.58
2019-01-24T03:25:17.907Z,97712.94
2019-01-24T03:26:20.251Z,97715.28
2019-01-24T03:27:22.693Z,97708.52
2019-01-24T03:28:25.197Z,97710.78
2019-01-24T03:29:27.593Z,97704.38
2019-01-24T03:30:30.028Z,97703.22
2019-01-24T03:31:32.437Z,97709.84
2019-01-24T03:32:34.947Z,97714.69
2019-01-24T03:33:37.400Z,97705.56
2019-01-24T03:34:39.712Z,97705.56
2019-01-24T03:35:42.294Z,97705.73
2019-01-24T03:36:44.645Z,97705.73
2019-01-24T03:37:48.940Z,97699.73
2019-01-24T03:38:51.729Z,97696.47
2019-01-24T03:39:54.263Z,97696.95
2019-01-24T03:40:56.689Z,97696.64
2019-01-24T03:41:59.136Z,97688.83
2019-01-24T03:43:01.544Z,97692.81
2019-01-24T03:44:04.338Z,97684.86
2019-01-24T03:45:08.712Z,97687.16
2019-01-24T03:46:11.550Z,97687.16
2019-01-24T03:47:14.546Z,97687.82
2019-01-24T03:48:17.024Z,97687.82
2019-01-24T03:49:19.686Z,97700.75
2019-01-24T03:50:23.305Z,97694.00
2019-01-24T03:51:25.723Z,97696.95
2019-01-24T03:52:28.134Z,97706.75
2019-01-24T03:53:30.497Z,97706.75
2019-01-24T03:54:33.090Z,97705.03
2019-01-24T03:55:35.764Z,97702.52
2019-01-24T03:56:38.227Z,97703.84
2019-01-24T03:57:40.770Z,97705.48
2019-01-24T03:58:43.488Z,97700.39
2019-01-24T03:59:46.119Z,97701.72
2019-01-24T04:00:48.592Z,97711.30
2019-01-24T04:01:50.976Z,97707.69
2019-01-24T04:02:53.742Z,97700.89
2019-01-24T04:03:56.266Z,97704.23
2019-01-24T04:04:58.676Z,97710.20
2019-01-24T04:06:02.399Z,97709.39
2019-01-24T04:07:05.080Z,97713.37
2019-01-24T04:08:07.539Z,97713.37
2019-01-24T04:09:10.241Z,97718.66
2019-01-24T04:10:14.816Z,97726.92
2019-01-24T04:11:17.367Z,97726.92
2019-01-24T04:12:19.885Z,97722.33
2019-01-24T04:13:22.317Z,97719.42
2019-01-24T04:14:24.679Z,97727.69
2019-01-24T04:15:27.599Z,97726.36
2019-01-24T04:16:30.013Z,97728.20
2019-01-24T04:17:33.528Z,97728.20
2019-01-24T04:18:36.009Z,97721.27
2019-01-24T04:19:38.751Z,97730.20
2019-01-24T04:20:41.201Z,97725.73
2019-01-24T04:21:43.801Z,97728.55
2019-01-24T04:22:46.209Z,97728.25
2019-01-24T04:23:50.441Z,97730.89
2019-01-24T04:24:53.357Z,97731.59
2019-01-24T04:25:55.807Z,97728.95
2019-01-24T04:26:59.390Z,97734.23
2019-01-24T04:28:03.532Z,97732.91
2019-01-24T04:29:05.968Z,97732.91
2019-01-24T04:30:11.255Z,97733.89
2019-01-24T04:31:13.623Z,97731.59
2019-01-24T04:32:17.102Z,97735.05
2019-01-24T04:33:19.521Z,97736.89
2019-01-24T04:34:21.941Z,97736.89
2019-01-24T04:35:24.487Z,97737.55
2019-01-24T04:36:26.810Z,97737.55
2019-01-24T04:37:29.324Z,97740.20
2019-01-24T04:38:31.653Z,97749.74
2019-01-24T04:39:35.204Z,97757.69
2019-01-24T04:40:37.895Z,97755.14
2019-01-24T04:41:41.906Z,97756.19
2019-01-24T04:42:44.216Z,97753.05
2019-01-24T04:43:46.760Z,97753.05
2019-01-24T04:44:49.190Z,97757.38
2019-01-24T04:45:51.795Z,97757.38
2019-01-24T04:46:54.387Z,97761.97
2019-01-24T04:47:57.206Z,97766.47
2019-01-24T04:48:59.615Z,97762.49
2019-01-24T04:50:02.137Z,97762.49
2019-01-24T04:51:04.600Z,97759.98
2019-01-24T04:52:07.067Z,97759.15
2019-01-24T04:53:10.344Z,97760.66
2019-01-24T04:54:14.142Z,97760.66
2019-01-24T04:55:18.088Z,97764.62
2019-01-24T04:56:21.490Z,97764.83
2019-01-24T04:57:25.346Z,97767.80
2019-01-24T04:58:27.758Z,97769.98
2019-01-24T04:59:30.167Z,97769.98
2019-01-24T05:00:32.816Z,97771.62
2019-01-24T05:01:36.587Z,97769.30
2019-01-24T05:02:40.314Z,97769.30
2019-01-24T05:03:42.734Z,97773.75
2019-01-24T05:04:45.355Z,97773.96
2019-01-24T05:05:48.150Z,97774.63
2019-01-24T05:06:51.557Z,97776.27
2019-01-24T05:07:54.021Z,97776.27
2019-01-24T05:08:56.511Z,97778.07
2019-01-24T05:10:02.438Z,97778.07
2019-01-24T05:11:05.001Z,97774.55
2019-01-24T05:12:07.517Z,97774.55
2019-01-24T05:13:09.978Z,97776.67
2019-01-24T05:14:12.505Z,97775.91
2019-01-24T05:15:14.910Z,97779.05
2019-01-24T05:16:17.676Z,97779.05
2019-01-24T05:17:20.093Z,97775.33
2019-01-24T05:18:22.563Z,97773.16
2019-01-24T05:19:25.021Z,97783.55
2019-01-24T05:20:28.743Z,97776.47
2019-01-24T05:21:31.406Z,97781.52
2019-01-24T05:22:34.188Z,97782.84
2019-01-24T05:23:36.594Z,97782.84
2019-01-24T05:24:39.009Z,97787.80
2019-01-24T05:25:42.101Z,97781.48
2019-01-24T05:26:44.751Z,97781.80
2019-01-24T05:27:47.167Z,97781.80
2019-01-24T05:28:49.595Z,97783.30
2019-01-24T05:29:52.381Z,97783.30
2019-01-24T05:30:54.834Z,97777.52
2019-01-24T05:31:57.345Z,97784.14
2019-01-24T05:33:00.323Z,97785.45
2019-01-24T05:34:03.179Z,97785.45
2019-01-24T05:35:07.239Z,97786.95
2019-01-24T05:36:09.975Z,97786.92
2019-01-24T05:37:12.413Z,97786.92
2019-01-24T05:38:14.867Z,97785.08
2019-01-24T05:39:17.267Z,97782.81
2019-01-24T05:40:20.167Z,97782.81
2019-01-24T05:41:22.639Z,97779.70
2019-01-24T05:42:26.189Z,97785.14
2019-01-24T05:43:28.936Z,97785.14
2019-01-24T05:44:31.291Z,97779.53
2019-01-24T05:45:34.862Z,97786.16
2019-01-24T05:46:37.262Z,97777.06
2019-01-24T05:47:39.666Z,97786.33
2019-01-24T05:48:42.267Z,97786.33
2019-01-24T05:49:45.760Z,97784.34
2019-01-24T05:50:48.418Z,97788.53
2019-01-24T05:51:50.826Z,97786.16
2019-01-24T05:52:53.496Z,97788.14
2019-01-24T05:53:56.064Z,97781.52
2019-01-24T05:54:59.560Z,97783.82
2019-01-24T05:56:03.726Z,97781.10
2019-01-24T05:57:06.637Z,97788.11
2019-01-24T05:58:09.164Z,97788.11
2019-01-24T05:59:11.717Z,97790.75
2019-01-24T06:00:26.532Z,97796.75
2019-01-24T06:01:29.192Z,97793.44
2019-01-24T06:02:31.542Z,97796.47
2019-01-24T06:03:34.953Z,97796.47
2019-01-24T06:04:37.318Z,97794.03
2019-01-24T06:05:41.938Z,97789.39
2019-01-24T06:06:44.210Z,97789.39
2019-01-24T06:07:46.640Z,97792.77
2019-01-24T06:08:49.007Z,97792.77
2019-01-24T06:09:51.842Z,97789.84
2019-01-24T06:10:54.232Z,97793.16
2019-01-24T06:11:56.653Z,97790.52
2019-01-24T06:12:59.087Z,97783.72
2019-01-24T06:14:01.662Z,97795.14
2019-01-24T06:15:05.975Z,97787.94
2019-01-24T06:16:09.279Z,97792.02
2019-01-24T06:17:11.880Z,97794.77
2019-01-24T06:18:14.305Z,97794.77
2019-01-24T06:19:18.413Z,97798.87
2019-01-24T06:20:20.886Z,97794.90
2019-01-24T06:21:23.322Z,97792.60
2019-01-24T06:22:26.321Z,97798.38
2019-01-24T06:23:30.178Z,97791.63
2019-01-24T06:24:32.624Z,97795.25
2019-01-24T06:25:35.020Z,97798.91
2019-01-24T06:26:40.511Z,97798.52
2019-01-24T06:27:42.967Z,97803.55
2019-01-24T06:28:45.602Z,97802.95
2019-01-24T06:29:48.055Z,97802.95
2019-01-24T06:30:50.459Z,97800.05
2019-01-24T06:31:52.853Z,97800.05
2019-01-24T06:32:55.389Z,97804.55
2019-01-24T06:33:57.822Z,97804.55
2019-01-24T06:35:00.611Z,97805.03
2019-01-24T06:36:03.071Z,97800.33
2019-01-24T06:37:05.820Z,97800.33
2019-01-24T06:38:08.749Z,97805.59
2019-01-24T06:39:11.349Z,97803.08
2019-01-24T06:40:13.821Z,97808.72
2019-01-24T06:41:18.811Z,97808.72
2019-01-24T06:42:21.662Z,97814.86
2019-01-24T06:43:25.805Z,97813.22
2019-01-24T06:44:28.649Z,97820.50
2019-01-24T06:45:32.100Z,97818.23
2019-01-24T06:46:34.975Z,97820.01
2019-01-24T06:47:37.531Z,97818.41
2019-01-24T06:48:40.472Z,97825.15
2019-01-24T06:49:42.976Z,97817.31
2019-01-24T06:50:45.400Z,97824.00
2019-01-24T06:51:48.254Z,97825.00
2019-01-24T06:52:51.071Z,97817.09
2019-01-24T06:53:53.587Z,97822.01
2019-01-24T06:54:56.108Z,97819.70
2019-01-24T06:55:58.704Z,97824.31
2019-01-24T06:57:01.230Z,97824.80
2019-01-24T06:58:03.674Z,97834.90
2019-01-24T06:59:06.064Z,97836.57
2019-01-24T07:00:11.471Z,97835.59
2019-01-24T07:01:14.156Z,97836.36
2019-01-24T07:02:16.595Z,97832.39
2019-01-24T07:03:19.111Z,97829.92
2019-01-24T07:04:21.480Z,97835.59
2019-01-24T07:05:23.978Z,97835.59
2019-01-24T07:06:26.397Z,97839.13
2019-01-24T07:07:28.783Z,97839.06
2019-01-24T07:08:31.124Z,97847.00
2019-01-24T07:09:33.786Z,97847.00
2019-01-24T07:10:36.144Z,97839.78
2019-01-24T07:11:38.935Z,97839.78
2019-01-24T07:12:43.211Z,97841.14
2019-01-24T07:13:45.624Z,97850.09
2019-01-24T07:14:48.516Z,97850.09
2019-01-24T07:15:51.417Z,97849.78
2019-01-24T07:16:53.854Z,97859.05
2019-01-24T07:17:57.829Z,97871.11
2019-01-24T07:19:00.243Z,97871.11
2019-01-24T07:20:03.840Z,97864.63
2019-01-24T07:21:06.154Z,97868.63
2019-01-24T07:22:08.587Z,97849.92
2019-01-24T07:23:10.961Z,97849.92
2019-01-24T07:24:13.481Z,97857.38
2019-01-24T07:25:20.991Z,97858.04
2019-01-24T07:26:23.447Z,97858.04
2019-01-24T07:27:25.887Z,97860.97
2019-01-24T07:28:28.303Z,97867.97
2019-01-24T07:29:30.687Z,97871.34
2019-01-24T07:30:33.105Z,97867.40
2019-01-24T07:31:35.631Z,97870.84
2019-01-24T07:32:38.043Z,97870.05
2019-01-24T07:33:40.644Z,97869.53
2019-01-24T07:34:43.422Z,97864.75
2019-01-24T07:35:45.877Z,97864.75
2019-01-24T07:36:48.405Z,97863.05
2019-01-24T07:37:52.035Z,97867.55
2019-01-24T07:38:54.480Z,97868.77
2019-01-24T07:39:56.995Z,97868.77
2019-01-24T07:40:59.560Z,97866.67
2019-01-24T07:42:02.395Z,97866.67
2019-01-24T07:43:05.053Z,97866.67
2019-01-24T07:44:07.798Z,97867.86
2019-01-24T07:45:33.827Z,97866.56
2019-01-24T07:46:36.409Z,97869.59
2019-01-24T07:47:39.153Z,97869.59
2019-01-24T07:48:41.790Z,97864.92
2019-01-24T07:49:44.369Z,97864.43
2019-01-24T07:50:47.263Z,97864.43
2019-01-24T07:51:49.921Z,97868.89
2019-01-24T07:52:52.384Z,97866.10
2019-01-24T07:53:54.776Z,97864.46
2019-01-24T07:54:57.464Z,97861.01
2019-01-24T07:56:00.065Z,97862.50
2019-01-24T07:57:02.600Z,97858.99
2019-01-24T07:58:05.543Z,97858.99
2019-01-24T07:59:09.745Z,97861.81
2019-01-24T08:00:17.606Z,97865.16
2019-01-24T08:01:20.317Z,97870.77
2019-01-24T08:02:22.865Z,97870.77
2019-01-24T08:03:25.292Z,97887.28
2019-01-24T08:04:27.698Z,97883.66
2019-01-24T08:05:30.332Z,97883.66
2019-01-24T08:06:33.182Z,97881.04
2019-01-24T08:07:36.532Z,97879.34
2019-01-24T08:08:39.244Z,97884.63
2019-01-24T08:09:43.132Z,97884.63
2019-01-24T08:10:45.971Z,97888.28
2019-01-24T08:11:48.389Z,97888.28
2019-01-24T08:12:50.888Z,97891.77
2019-01-24T08:13:53.432Z,97893.55
2019-01-24T08:14:56.940Z,97890.28
2019-01-24T08:15:59.310Z,97890.28
2019-01-24T08:17:01.863Z,97895.91
2019-01-24T08:18:05.058Z,97888.28
2019-01-24T08:19:07.804Z,97889.61
2019-01-24T08:20:15.499Z,97898.56
2019-01-24T08:21:17.981Z,97893.44
2019-01-24T08:22:20.432Z,97904.34
2019-01-24T08:23:22.988Z,97897.09
2019-01-24T08:24:25.622Z,97896.55
2019-01-24T08:25:28.349Z,97895.08
2019-01-24T08:26:30.811Z,97895.08
2019-01-24T08:27:33.598Z,97902.23
2019-01-24T08:28:36.061Z,97902.23
2019-01-24T08:29:39.515Z,97903.02
2019-01-24T08:30:42.670Z,97903.02
2019-01-24T08:31:45.123Z,97907.80
2019-01-24T08:32:47.907Z,97902.99
2019-01-24T08:33:50.476Z,97908.81
2019-01-24T08:34:53.111Z,97905.01
2019-01-24T08:35:55.569Z,97905.01
2019-01-24T08:36:58.245Z,97893.41
2019-01-24T08:38:00.617Z,97899.02
2019-01-24T08:39:07.653Z,97899.72
2019-01-24T08:40:11.383Z,97901.04
2019-01-24T08:41:15.121Z,97900.20
2019-01-24T08:42:17.961Z,97897.23
2019-01-24T08:43:20.557Z,97897.23
2019-01-24T08:44:22.951Z,97897.23
2019-01-24T08:45:25.473Z,97903.17
2019-01-24T08:46:27.881Z,97906.16
2019-01-24T08:47:30.262Z,97906.02
2019-01-24T08:48:32.701Z,97910.94
2019-01-24T08:49:35.207Z,97914.42
2019-01-24T08:50:37.598Z,97911.43
2019-01-24T08:51:40.352Z,97911.77
2019-01-24T08:52:42.898Z,97903.52
2019-01-24T08:53:45.512Z,97905.18
2019-01-24T08:54:48.284Z,97901.19
2019-01-24T08:55:52.204Z,97901.19
2019-01-24T08:56:54.566Z,97904.81
2019-01-24T08:57:59.651Z,97901.19
2019-01-24T08:59:02.286Z,97901.35
2019-01-24T09:00:05.964Z,97901.50
2019-01-24T09:01:08.518Z,97901.70
2019-01-24T09:02:10.944Z,97905.18
2019-01-24T09:03:14.826Z,97900.38
2019-01-24T09:04:17.440Z,97900.52
2019-01-24T09:05:20.242Z,97895.89
2019-01-24T09:06:22.987Z,97905.33
2019-01-24T09:07:25.999Z,97904.32
2019-01-24T09:08:28.776Z,97913.09
2019-01-24T09:09:32.768Z,97911.45
2019-01-24T09:10:37.141Z,97922.36
2019-01-24T09:11:40.087Z,97920.03
2019-01-24T09:12:42.962Z,97920.03
2019-01-24T09:13:47.357Z,97920.06
2019-01-24T09:14:50.272Z,97927.66
2019-01-24T09:15:52.702Z,97929.64
2019-01-24T09:16:55.443Z,97938.73
2019-01-24T09:17:57.927Z,97938.73
2019-01-24T09:19:00.494Z,97949.02
2019-01-24T09:20:03.632Z,97942.72
2019-01-24T09:21:06.082Z,97936.92
2019-01-24T09:22:08.671Z,97948.52
2019-01-24T09:23:11.113Z,97946.83
2019-01-24T09:24:15.158Z,97951.31
2019-01-24T09:25:17.893Z,97953.61
2019-01-24T09:26:20.681Z,97946.51
2019-01-24T09:27:23.080Z,97946.51
2019-01-24T09:28:26.587Z,97945.36
2019-01-24T09:29:29.047Z,97940.90
2019-01-24T09:30:32.478Z,97940.90
2019-01-24T09:31:35.208Z,97944.72
2019-01-24T09:32:37.679Z,97955.46
2019-01-24T09:33:40.697Z,97954.94
2019-01-24T09:34:43.382Z,97963.10
2019-01-24T09:35:47.333Z,97955.48
2019-01-24T09:36:50.165Z,97962.09
2019-01-24T09:37:53.191Z,97953.15
2019-01-24T09:38:56.721Z,97958.11
2019-01-24T09:39:59.215Z,97954.45
2019-01-24T09:41:02.720Z,97962.08
2019-01-24T09:42:06.599Z,97959.94
2019-01-24T09:43:09.067Z,97954.79
2019-01-24T09:44:11.490Z,97959.09
2019-01-24T09:45:19.269Z,97962.26
2019-01-24T09:46:22.909Z,97956.44
2019-01-24T09:47:25.307Z,97956.44
2019-01-24T09:48:27.730Z,97945.53
2019-01-24T09:49:30.381Z,97947.69
2019-01-24T09:50:33.348Z,97957.13
2019-01-24T09:51:35.806Z,97955.48
2019-01-24T09:52:39.705Z,97948.23
2019-01-24T09:53:43.876Z,97950.19
2019-01-24T09:54:46.525Z,97955.97
2019-01-24T09:55:49.226Z,97955.97
2019-01-24T09:56:52.941Z,97953.52
2019-01-24T09:57:56.216Z,97960.29
2019-01-24T09:58:59.230Z,97955.28
2019-01-24T10:00:01.675Z,97957.44
2019-01-24T10:01:04.355Z,97955.94
2019-01-24T10:02:06.692Z,97960.44
2019-01-24T10:03:09.365Z,97960.44
2019-01-24T10:04:11.826Z,97954.30
2019-01-24T10:05:15.462Z,97954.30
2019-01-24T10:06:18.096Z,97955.77
2019-01-24T10:07:21.770Z,97959.11
2019-01-24T10:08:24.474Z,97959.11
2019-01-24T10:09:29.228Z,97964.06
2019-01-24T10:10:31.637Z,97965.91
2019-01-24T10:11:34.005Z,97965.91
2019-01-24T10:12:36.438Z,97970.19
2019-01-24T10:13:40.257Z,97968.41
2019-01-24T10:14:42.732Z,97962.09
2019-01-24T10:15:45.174Z,97962.09
2019-01-24T10:16:47.736Z,97960.44
2019-01-24T10:17:50.314Z,97956.09
2019-01-24T10:18:52.872Z,97951.31
2019-01-24T10:19:55.241Z,97951.48
2019-01-24T10:20:58.777Z,97951.48
2019-01-24T10:22:01.458Z,97943.37
2019-01-24T10:23:04.277Z,97950.66
2019-01-24T10:24:07.313Z,97950.66
2019-01-24T10:25:15.619Z,97952.29
2019-01-24T10:26:18.423Z,97948.00
2019-01-24T10:27:21.012Z,97948.32
2019-01-24T10:28:23.429Z,97946.36
2019-01-24T10:29:26.182Z,97936.61
2019-01-24T10:30:28.648Z,97936.61
2019-01-24T10:31:31.184Z,97934.45
2019-01-24T10:32:33.781Z,97927.66
2019-01-24T10:33:36.983Z,97926.16
2019-01-24T10:34:39.888Z,97932.64
2019-01-24T10:35:42.837Z,97923.66
2019-01-24T10:36:45.349Z,97931.29
2019-01-24T10:37:48.010Z,97931.29
2019-01-24T10:38:51.119Z,97930.30
2019-01-24T10:39:53.575Z,97928.66
2019-01-24T10:40:56.358Z,97930.94
2019-01-24T10:41:58.951Z,97928.30
2019-01-24T10:43:01.448Z,97928.30
2019-01-24T10:44:06.473Z,97930.28
2019-01-24T10:45:11.001Z,97926.52
2019-01-24T10:46:13.637Z,97928.14
2019-01-24T10:47:16.610Z,97925.01
2019-01-24T10:48:19.049Z,97932.12
2019-01-24T10:49:23.141Z,97930.94
2019-01-24T10:50:26.935Z,97924.67
2019-01-24T10:51:29.389Z,97922.31
2019-01-24T10:52:31.771Z,97919.89
2019-01-24T10:53:34.201Z,97919.89
2019-01-24T10:54:36.753Z,97921.53
2019-01-24T10:55:39.600Z,97924.00
2019-01-24T10:56:42.240Z,97924.00
2019-01-24T10:57:44.635Z,97922.68
2019-01-24T10:58:48.065Z,97921.70
2019-01-24T10:59:50.557Z,97925.99
2019-01-24T11:00:53.055Z,97922.19
2019-01-24T11:01:55.557Z,97913.91
2019-01-24T11:02:58.332Z,97917.39
2019-01-24T11:04:01.922Z,97914.59
2019-01-24T11:05:05.084Z,97912.78
2019-01-24T11:06:08.890Z,97906.82
2019-01-24T11:07:11.332Z,97901.98
2019-01-24T11:08:14.136Z,97899.20
2019-01-24T11:09:16.751Z,97899.20
2019-01-24T11:10:19.680Z,97911.94
2019-01-24T11:11:22.215Z,97907.14
2019-01-24T11:12:24.630Z,97907.14
2019-01-24T11:13:27.350Z,97904.02
2019-01-24T11:14:29.772Z,97904.02
2019-01-24T11:15:33.703Z,97913.81
2019-01-24T11:16:36.092Z,97916.78
2019-01-24T11:17:38.540Z,97917.27
2019-01-24T11:18:42.050Z,97917.27
2019-01-24T11:19:45.823Z,97921.38
2019-01-24T11:20:48.366Z,97918.22
2019-01-24T11:21:52.590Z,97916.09
2019-01-24T11:22:54.939Z,97915.08
2019-01-24T11:23:57.498Z,97907.34
2019-01-24T11:24:59.886Z,97907.34
2019-01-24T11:26:03.568Z,97908.46
2019-01-24T11:27:06.055Z,97912.78
2019-01-24T11:28:08.629Z,97912.78
2019-01-24T11:29:12.225Z,97906.16
2019-01-24T11:30:17.847Z,97907.80
2019-01-24T11:31:20.322Z,97910.13
2019-01-24T11:32:23.245Z,97910.13
2019-01-24T11:33:25.888Z,97911.77
2019-01-24T11:34:30.294Z,97914.77
2019-01-24T11:35:33.772Z,97917.39
2019-01-24T11:36:36.154Z,97910.77
2019-01-24T11:37:38.721Z,97909.30
2019-01-24T11:38:43.030Z,97910.77
2019-01-24T11:39:45.433Z,97913.09
2019-01-24T11:40:47.902Z,97915.77
2019-01-24T11:41:51.269Z,97915.77
2019-01-24T11:42:54.140Z,97909.10
2019-01-24T11:43:56.724Z,97909.10
2019-01-24T11:44:59.441Z,97907.83
2019-01-24T11:46:02.299Z,97910.64
2019-01-24T11:47:05.213Z,97909.15
2019-01-24T11:48:08.364Z,97912.80
2019-01-24T11:49:10.781Z,97912.80
2019-01-24T11:50:15.255Z,97923.02
2019-01-24T11:51:17.783Z,97918.88
2019-01-24T11:52:20.346Z,97922.22
2019-01-24T11:53:22.796Z,97923.56
2019-01-24T11:54:25.171Z,97924.72
2019-01-24T11:55:27.793Z,97920.75
2019-01-24T11:56:30.322Z,97929.70
2019-01-24T11:57:32.865Z,97926.90
2019-01-24T11:58:35.381Z,97925.89
2019-01-24T11:59:37.774Z,97919.30
2019-01-24T12:00:47.978Z,97929.23
2019-01-24T12:01:52.071Z,97923.59
2019-01-24T12:02:55.710Z,97931.22
2019-01-24T12:03:58.310Z,97918.64
2019-01-24T12:05:00.712Z,97918.64
2019-01-24T12:06:03.891Z,97922.09
2019-01-24T12:07:06.399Z,97926.53
2019-01-24T12:08:08.939Z,97921.41
2019-01-24T12:09:13.207Z,97922.93
2019-01-24T12:10:17.770Z,97920.08
2019-01-24T12:11:20.466Z,97917.64
2019-01-24T12:12:22.855Z,97915.80
2019-01-24T12:13:25.231Z,97915.80
2019-01-24T12:14:27.921Z,97910.02
2019-01-24T12:15:30.386Z,97915.30
2019-01-24T12:16:34.350Z,97913.66
2019-01-24T12:17:37.795Z,97910.35
2019-01-24T12:18:40.322Z,97915.16
2019-01-24T12:19:44.371Z,97916.48